Time;durP1;ratioP1;P1;durP2;ratioP2;P2;SDS_P1;SDS_P2;PMS_P1;PMS_P2;Temp;Humidity;BMP_temperature;BMP_pressure;BME280_temperature;BME280_humidity;BME280_pressure;Samples;Min_cycle;Max_cycle;Signal;HPM_P1;HPM_P2
2021/11/10 00:00:29;;;;;;;25.13;15.45;;;;;;;-0.95;100.00;96592.56;1030909;28;20096;-69
2021/11/10 00:01:00;;;;;;;26.46;15.70;;;;;;;-0.91;100.00;96598.97;1023136;29;20069;-70
2021/11/10 00:01:30;;;;;;;35.90;15.38;;;;;;;-0.91;100.00;96604.13;1022789;28;20027;-69
2021/11/10 00:02:01;;;;;;;25.00;15.50;;;;;;;-0.92;100.00;96601.75;1023020;28;20191;-69
2021/11/10 00:02:31;;;;;;;24.43;15.00;;;;;;;-0.95;100.00;96605.44;1023040;28;20200;-69
2021/11/10 00:03:02;;;;;;;23.77;15.93;;;;;;;-0.97;100.00;96607.41;1025152;28;20038;-69
2021/11/10 00:03:32;;;;;;;21.17;14.70;;;;;;;-0.99;100.00;96611.91;1027311;28;20058;-70
2021/11/10 00:04:03;;;;;;;27.63;14.77;;;;;;;-1.02;100.00;96612.25;1030981;28;20756;-69
2021/11/10 00:04:33;;;;;;;21.93;15.57;;;;;;;-1.03;100.00;96608.06;1035120;28;20034;-70
2021/11/10 00:05:04;;;;;;;25.33;15.23;;;;;;;-1.03;100.00;96608.06;1030542;28;20186;-69
2021/11/10 00:05:36;;;;;;;27.98;15.15;;;;;;;-1.03;100.00;96605.50;1022812;29;20030;-73
2021/11/10 00:06:06;;;;;;;23.94;15.12;;;;;;;-1.02;100.00;96604.50;1019151;29;20557;-70
2021/11/10 00:06:37;;;;;;;22.00;15.20;;;;;;;-1.00;100.00;96600.81;1019114;28;20105;-69
2021/11/10 00:07:07;;;;;;;24.97;15.97;;;;;;;-0.97;100.00;96604.81;1019458;29;20036;-68
2021/11/10 00:07:38;;;;;;;23.17;15.77;;;;;;;-1.07;100.00;96599.09;1022551;28;20122;-69
2021/11/10 00:08:08;;;;;;;27.77;16.03;;;;;;;-1.00;100.00;96608.53;1024090;28;20035;-71
2021/11/10 00:08:39;;;;;;;23.98;15.35;;;;;;;-1.04;100.00;96603.88;1026653;28;20508;-70
2021/11/10 00:09:09;;;;;;;21.02;14.75;;;;;;;-1.03;100.00;96610.66;1031280;28;20411;-69
2021/11/10 00:09:40;;;;;;;25.03;15.20;;;;;;;-1.04;100.00;96609.03;1026738;28;20027;-70
2021/11/10 00:10:11;;;;;;;30.77;16.57;;;;;;;-1.05;100.00;96604.84;1022750;28;20095;-69
2021/11/10 00:10:41;;;;;;;22.85;15.20;;;;;;;-1.07;100.00;96605.03;1018903;29;20465;-70
2021/11/10 00:11:12;;;;;;;23.90;15.65;;;;;;;-1.07;100.00;96606.81;1026621;28;20111;-69
2021/11/10 00:11:42;;;;;;;26.97;15.20;;;;;;;-1.13;100.00;96599.75;1031163;28;20507;-69
2021/11/10 00:12:13;;;;;;;22.63;15.20;;;;;;;-1.09;100.00;96601.81;1034775;28;20456;-70
2021/11/10 00:12:43;;;;;;;28.10;17.07;;;;;;;-1.09;100.00;96611.31;1018475;29;20642;-70
2021/11/10 00:13:20;;;;;;;27.93;16.07;;;;;;;-1.11;100.00;96608.88;1015258;29;20050;-70
2021/11/10 00:13:50;;;;;;;24.60;15.18;;;;;;;-1.11;100.00;96610.66;1015019;29;20672;-70
2021/11/10 00:14:21;;;;;;;27.63;16.37;;;;;;;-1.17;100.00;96596.72;1016385;28;20032;-69
2021/11/10 00:14:51;;;;;;;25.73;16.25;;;;;;;-1.13;100.00;96599.75;1024693;28;20031;-70
2021/11/10 00:15:22;;;;;;;23.63;15.57;;;;;;;-1.12;100.00;96601.34;1030766;28;20105;-71
2021/11/10 00:15:52;;;;;;;25.63;15.32;;;;;;;-1.14;100.00;96601.53;1030909;28;20018;-69
2021/11/10 00:16:23;;;;;;;28.27;15.27;;;;;;;-1.15;100.00;96605.03;1026434;28;20254;-71
2021/11/10 00:16:55;;;;;;;25.80;15.15;;;;;;;-1.14;100.00;96611.00;1030978;28;20584;-69
2021/11/10 00:17:25;;;;;;;28.02;17.20;;;;;;;-1.22;100.00;96599.75;1023320;28;20027;-69
2021/11/10 00:17:56;;;;;;;24.10;16.60;;;;;;;-1.15;100.00;96612.78;1019784;29;20023;-69
2021/11/10 00:18:26;;;;;;;24.60;15.30;;;;;;;-1.23;100.00;96594.78;1026834;28;20074;-71
2021/11/10 00:18:57;;;;;;;24.17;15.90;;;;;;;-1.25;100.00;96591.56;1026745;28;20033;-69
2021/11/10 00:19:27;;;;;;;23.83;15.27;;;;;;;-1.24;100.00;96583.69;1026586;28;20466;-69
2021/11/10 00:19:58;;;;;;;26.38;15.32;;;;;;;-1.14;100.00;96587.81;1023049;28;20035;-70
2021/11/10 00:20:28;;;;;;;24.85;16.63;;;;;;;-1.14;100.00;96591.22;1022706;29;20035;-71
2021/11/10 00:20:59;;;;;;;25.43;16.20;;;;;;;-1.13;100.00;96589.44;1026702;28;20034;-71
2021/11/10 00:21:29;;;;;;;26.03;15.13;;;;;;;-1.21;100.00;96579.97;1029744;28;20033;-70
2021/11/10 00:22:00;;;;;;;27.27;16.07;;;;;;;-1.23;100.00;96585.28;1026657;28;20038;-70
2021/11/10 00:22:30;;;;;;;24.02;16.15;;;;;;;-1.18;100.00;96592.50;1019088;29;20592;-70
2021/11/10 00:23:01;;;;;;;21.03;15.07;;;;;;;-1.19;100.00;96596.84;1018382;29;20039;-69
2021/11/10 00:23:31;;;;;;;21.10;15.37;;;;;;;-1.21;100.00;96592.84;1022805;28;20034;-70
2021/11/10 00:24:02;;;;;;;30.25;15.05;;;;;;;-1.20;100.00;96599.63;1031034;28;20069;-69
2021/11/10 00:24:32;;;;;;;28.10;15.40;;;;;;;-1.21;100.00;96598.81;1030502;28;20034;-69
2021/11/10 00:25:04;;;;;;;21.60;14.57;;;;;;;-1.20;100.00;96604.75;1030682;28;20077;-69
2021/11/10 00:25:34;;;;;;;27.00;16.27;;;;;;;-1.24;100.00;96594.00;1030944;28;20030;-71
2021/11/10 00:26:05;;;;;;;25.48;16.40;;;;;;;-1.19;100.00;96596.84;1024885;28;20469;-69
2021/11/10 00:26:35;;;;;;;29.65;16.63;;;;;;;-1.24;100.00;96591.44;1026255;28;20501;-72
2021/11/10 00:27:06;;;;;;;25.85;16.80;;;;;;;-1.20;100.00;96608.13;1022656;29;20413;-70
2021/11/10 00:27:36;;;;;;;26.80;16.10;;;;;;;-1.24;100.00;96594.00;1018320;28;20028;-68
2021/11/10 00:28:07;;;;;;;21.43;14.57;;;;;;;-1.22;100.00;96601.53;1023903;28;20054;-69
2021/11/10 00:28:37;;;;;;;27.30;15.93;;;;;;;-1.16;100.00;96605.22;1022732;29;20034;-69
2021/11/10 00:29:07;;;;;;;24.43;16.33;;;;;;;-1.24;100.00;96594.00;1026565;28;20082;-70
2021/11/10 00:29:38;;;;;;;25.60;17.20;;;;;;;-1.19;100.00;96609.72;1030403;28;20029;-69
2021/11/10 00:30:09;;;;;;;26.93;15.67;;;;;;;-1.26;100.00;96588.19;1026716;28;20030;-71
2021/11/10 00:30:39;;;;;;;27.77;15.87;;;;;;;-1.14;100.00;96613.56;1015006;29;20028;-70
2021/11/10 00:31:10;;;;;;;29.70;17.77;;;;;;;-1.20;100.00;96597.03;1018668;29;20458;-70
2021/11/10 00:31:40;;;;;;;22.17;15.60;;;;;;;-1.13;100.00;96610.03;1030326;28;20030;-69
2021/11/10 00:32:11;;;;;;;29.00;17.40;;;;;;;-1.12;100.00;96602.13;1022948;29;20038;-70
2021/11/10 00:32:41;;;;;;;30.92;17.95;;;;;;;-1.12;100.00;96596.19;1018666;29;20020;-69
2021/11/10 00:33:11;;;;;;;32.75;17.52;;;;;;;-1.07;100.00;96604.22;1017009;29;20063;-69
2021/11/10 00:33:42;;;;;;;26.73;16.17;;;;;;;-1.09;100.00;96612.09;1015247;28;20024;-70
2021/11/10 00:34:12;;;;;;;29.87;17.77;;;;;;;-1.09;100.00;96613.88;1026786;28;20038;-70
2021/11/10 00:34:43;;;;;;;25.40;16.07;;;;;;;-1.11;100.00;96613.25;1030748;28;20437;-71
2021/11/10 00:35:16;;;;;;;23.20;15.90;;;;;;;-1.17;100.00;96604.44;1030467;28;20026;-70
2021/11/10 00:35:46;;;;;;;29.23;16.33;;;;;;;-1.14;100.00;96608.41;1026692;28;20027;-70
2021/11/10 00:36:17;;;;;;;32.10;16.37;;;;;;;-1.12;100.00;96606.50;1028279;28;20030;-69
2021/11/10 00:36:47;;;;;;;26.20;17.10;;;;;;;-1.05;100.00;96605.66;1030607;28;20034;-69
2021/11/10 00:37:18;;;;;;;37.97;17.77;;;;;;;-1.05;100.00;96608.22;1024961;28;20100;-69
2021/11/10 00:37:48;;;;;;;23.73;17.07;;;;;;;-1.05;100.00;96604.84;1018202;28;20028;-70
2021/11/10 00:38:19;;;;;;;29.60;17.00;;;;;;;-1.10;100.00;96600.22;1018804;29;20028;-70
2021/11/10 00:38:49;;;;;;;32.45;18.02;;;;;;;-1.05;100.00;96597.91;1014831;29;20072;-70
2021/11/10 00:39:20;;;;;;;29.57;17.10;;;;;;;-1.05;100.00;96602.28;1014798;29;20035;-69
2021/11/10 00:39:50;;;;;;;27.63;16.83;;;;;;;-1.04;100.00;96601.28;1017739;29;20606;-70
2021/11/10 00:40:20;;;;;;;27.10;16.70;;;;;;;-1.09;100.00;96593.28;1022023;28;20027;-69
2021/11/10 00:40:51;;;;;;;28.03;17.00;;;;;;;-1.07;100.00;96604.22;1023935;28;20571;-69
2021/11/10 00:41:22;;;;;;;31.63;18.20;;;;;;;-1.16;100.00;96590.56;1018346;29;20483;-69
2021/11/10 00:41:52;;;;;;;22.90;16.20;;;;;;;-1.10;100.00;96610.50;1018968;29;20032;-69
2021/11/10 00:42:22;;;;;;;25.80;16.47;;;;;;;-1.10;100.00;96602.78;1023845;28;20035;-69
2021/11/10 00:42:53;;;;;;;26.10;16.27;;;;;;;-1.12;100.00;96601.34;1034650;28;20029;-68
2021/11/10 00:43:23;;;;;;;24.60;17.58;;;;;;;-1.12;100.00;96606.50;1030162;28;20076;-67
2021/11/10 00:43:59;;;;;;;27.52;16.15;;;;;;;-1.20;100.00;96592.69;1030855;28;20026;-71
2021/11/10 00:44:29;;;;;;;30.27;17.40;;;;;;;-1.13;100.00;96594.59;1023235;29;20091;-69
2021/11/10 00:45:00;;;;;;;29.23;17.50;;;;;;;-1.15;100.00;96601.69;1016181;29;20028;-70
2021/11/10 00:45:30;;;;;;;25.63;16.37;;;;;;;-1.15;100.00;96597.31;1018782;29;20098;-70
2021/11/10 00:46:01;;;;;;;30.80;16.63;;;;;;;-1.15;100.00;96599.09;1016777;29;20031;-70
2021/11/10 00:46:32;;;;;;;22.57;15.87;;;;;;;-1.14;100.00;96603.28;1023084;28;20031;-69
2021/11/10 00:47:03;;;;;;;28.90;17.27;;;;;;;-1.14;100.00;96596.38;1023517;28;20118;-69
2021/11/10 00:47:33;;;;;;;27.70;17.30;;;;;;;-1.19;100.00;96581.41;1031095;28;20109;-70
2021/11/10 00:48:04;;;;;;;24.60;16.57;;;;;;;-1.09;100.00;96598.44;1026227;28;20034;-69
2021/11/10 00:48:35;;;;;;;27.03;17.40;;;;;;;-1.08;100.00;96602.59;1023367;29;20027;-69
2021/11/10 00:49:05;;;;;;;26.27;19.00;;;;;;;-1.12;100.00;96597.00;1018790;29;20035;-71
2021/11/10 00:49:35;;;;;;;31.63;18.43;;;;;;;-1.17;100.00;96588.97;1023091;29;20035;-69
2021/11/10 00:50:07;;;;;;;27.93;16.50;;;;;;;-1.14;100.00;96600.69;1027138;28;20042;-71
2021/11/10 00:50:38;;;;;;;30.16;17.66;;;;;;;-1.14;100.00;96591.22;1031015;28;20045;-69
2021/11/10 00:51:08;;;;;;;26.05;17.17;;;;;;;-1.09;100.00;96595.84;1023131;28;20068;-70
2021/11/10 00:51:38;;;;;;;30.07;18.03;;;;;;;-1.05;100.00;96586.81;1023223;28;20274;-70
2021/11/10 00:52:09;;;;;;;32.40;18.90;;;;;;;-1.09;100.00;96582.97;1022923;29;20376;-70
2021/11/10 00:52:39;;;;;;;31.20;18.17;;;;;;;-0.98;100.00;96595.47;1017371;29;20047;-70
2021/11/10 00:53:10;;;;;;;28.98;17.52;;;;;;;-1.06;100.00;96593.75;1019497;28;20036;-71
2021/11/10 00:53:40;;;;;;;28.20;18.50;;;;;;;-1.08;100.00;96592.31;1023220;28;20398;-69
2021/11/10 00:54:12;;;;;;;28.53;17.03;;;;;;;-1.09;100.00;96594.09;1027220;28;20099;-69
2021/11/10 00:54:43;;;;;;;24.30;16.27;;;;;;;-1.05;100.00;96599.69;1019039;29;20491;-69
2021/11/10 00:55:16;;;;;;;27.63;16.10;;;;;;;-1.06;100.00;96600.69;1019314;29;20039;-71
2021/11/10 00:55:47;;;;;;;30.13;17.63;;;;;;;-1.08;100.00;96602.59;1019872;29;20450;-69
2021/11/10 00:56:17;;;;;;;27.43;17.37;;;;;;;-1.10;100.00;96602.78;1028528;28;20121;-69
2021/11/10 00:56:48;;;;;;;25.27;16.73;;;;;;;-1.10;100.00;96600.22;1027240;28;20158;-71
2021/11/10 00:57:18;;;;;;;24.90;16.02;;;;;;;-1.15;100.00;96597.31;1015271;29;20039;-70
2021/11/10 00:57:49;;;;;;;25.40;15.40;;;;;;;-1.12;100.00;96601.34;1018157;29;20024;-71
2021/11/10 00:58:19;;;;;;;21.75;15.07;;;;;;;-1.16;100.00;96589.78;1022113;29;20023;-70
2021/11/10 00:58:50;;;;;;;28.13;16.60;;;;;;;-1.17;100.00;96599.28;1023282;28;20022;-70
2021/11/10 00:59:20;;;;;;;25.83;16.47;;;;;;;-1.15;100.00;96599.09;1027165;28;20027;-69
2021/11/10 00:59:50;;;;;;;26.77;16.47;;;;;;;-1.16;100.00;96600.09;1031256;28;20259;-69
2021/11/10 01:00:22;;;;;;;28.63;16.63;;;;;;;-1.19;100.00;96589.13;1030642;28;20027;-69
2021/11/10 01:00:52;;;;;;;27.10;16.38;;;;;;;-1.19;100.00;96589.13;1027375;28;20027;-69
2021/11/10 01:01:23;;;;;;;25.40;16.07;;;;;;;-1.22;100.00;96589.47;1026902;28;20446;-70
2021/11/10 01:01:53;;;;;;;27.90;16.70;;;;;;;-1.22;100.00;96589.47;1029482;28;20035;-69
2021/11/10 01:02:23;;;;;;;26.97;16.07;;;;;;;-1.21;100.00;96592.84;1030951;28;20023;-70
2021/11/10 01:02:54;;;;;;;23.70;15.90;;;;;;;-1.23;100.00;96595.59;1028982;28;20027;-70
2021/11/10 01:03:27;;;;;;;30.87;17.33;;;;;;;-1.23;100.00;96590.44;1030146;28;20030;-69
2021/11/10 01:03:58;;;;;;;29.63;17.23;;;;;;;-1.25;100.00;96591.56;1027111;28;20112;-71
2021/11/10 01:04:28;;;;;;;26.27;17.20;;;;;;;-1.26;100.00;96585.63;1022996;28;20124;-69
2021/11/10 01:04:59;;;;;;;25.53;16.33;;;;;;;-1.26;100.00;96585.63;1019462;29;20766;-69
2021/11/10 01:05:29;;;;;;;28.60;16.40;;;;;;;-1.30;100.00;96581.00;1015393;29;20630;-69
2021/11/10 01:06:00;;;;;;;29.60;17.83;;;;;;;-1.27;100.00;96589.19;1027163;28;20034;-69
2021/11/10 01:06:33;;;;;;;25.63;16.52;;;;;;;-1.36;100.00;96573.94;1030798;28;20033;-69
2021/11/10 01:07:04;;;;;;;28.27;17.25;;;;;;;-1.44;100.00;96572.19;1026267;28;20098;-69
2021/11/10 01:07:35;;;;;;;32.37;16.43;;;;;;;-1.31;100.00;96590.50;1026800;28;20031;-73
2021/11/10 01:08:05;;;;;;;29.93;15.93;;;;;;;-1.31;100.00;96599.97;1018435;29;20115;-69
2021/11/10 01:08:36;;;;;;;28.27;17.17;;;;;;;-1.33;100.00;96592.41;1022869;28;20023;-69
2021/11/10 01:09:16;;;;;;;26.05;16.73;;;;;;;-1.41;100.00;96584.72;1027363;28;20031;-69
2021/11/10 01:09:48;;;;;;;24.23;16.52;;;;;;;-1.39;100.00;96590.50;1028434;28;20854;-69
2021/11/10 01:10:18;;;;;;;26.77;16.67;;;;;;;-1.36;100.00;96584.22;1028842;28;20042;-69
2021/11/10 01:10:49;;;;;;;24.45;16.42;;;;;;;-1.35;100.00;96586.63;1025297;28;20030;-69
2021/11/10 01:11:19;;;;;;;28.63;16.67;;;;;;;-1.34;100.00;96592.56;1022904;28;20075;-70
2021/11/10 01:11:50;;;;;;;26.98;16.73;;;;;;;-1.34;100.00;96585.66;1023529;29;20027;-70
2021/11/10 01:12:20;;;;;;;27.70;17.20;;;;;;;-1.41;100.00;96579.56;1026940;28;20033;-70
2021/11/10 01:12:51;;;;;;;26.10;16.10;;;;;;;-1.44;100.00;96575.56;1024729;28;20424;-69
2021/11/10 01:13:21;;;;;;;22.53;15.20;;;;;;;-1.36;100.00;96581.66;1023422;29;20579;-69
2021/11/10 01:13:51;;;;;;;31.53;16.50;;;;;;;-1.36;100.00;96589.38;1027148;28;20019;-70
2021/11/10 01:14:22;;;;;;;27.58;16.17;;;;;;;-1.43;100.00;96574.59;1027269;28;20078;-70
2021/11/10 01:14:52;;;;;;;24.87;16.70;;;;;;;-1.36;100.00;96587.59;1030967;28;20023;-68
2021/11/10 01:15:23;;;;;;;26.03;16.53;;;;;;;-1.40;100.00;96582.97;1015103;29;20035;-69
2021/11/10 01:15:54;;;;;;;27.70;17.03;;;;;;;-1.37;100.00;96583.44;1019452;29;20089;-71
2021/11/10 01:16:24;;;;;;;33.23;17.63;;;;;;;-1.38;100.00;96588.72;1017645;29;20573;-69
2021/11/10 01:16:54;;;;;;;31.42;18.48;;;;;;;-1.41;100.00;96582.13;1030903;28;20025;-69
2021/11/10 01:17:25;;;;;;;31.00;18.60;;;;;;;-1.41;100.00;96587.28;1035468;28;20014;-69
2021/11/10 01:17:55;;;;;;;27.07;16.77;;;;;;;-1.42;100.00;96583.09;1028125;28;20022;-70
2021/11/10 01:18:26;;;;;;;25.90;15.97;;;;;;;-1.43;100.00;96577.16;1023052;28;20018;-70
2021/11/10 01:18:56;;;;;;;33.93;19.03;;;;;;;-1.46;100.00;96581.84;1023224;28;20027;-69
2021/11/10 01:19:27;;;;;;;36.50;20.10;;;;;;;-1.48;100.00;96576.84;1026694;28;20022;-68
2021/11/10 01:19:57;;;;;;;34.10;20.17;;;;;;;-1.46;100.00;96582.66;1023174;29;20149;-69
2021/11/10 01:20:27;;;;;;;32.00;20.47;;;;;;;-1.45;100.00;96580.88;1023127;28;20031;-70
2021/11/10 01:20:58;;;;;;;44.37;23.93;;;;;;;-1.45;100.00;96586.00;1026891;28;20026;-70
2021/11/10 01:21:28;;;;;;;40.63;23.27;;;;;;;-1.46;100.00;96587.78;1027179;28;20022;-69
2021/11/10 01:21:59;;;;;;;32.10;19.60;;;;;;;-1.46;100.00;96590.38;1027068;28;20023;-69
2021/11/10 01:22:29;;;;;;;37.33;22.30;;;;;;;-1.47;100.00;96581.03;1022796;29;20023;-69
2021/11/10 01:23:00;;;;;;;42.30;23.33;;;;;;;-1.45;100.00;96581.66;1025430;28;20023;-69
2021/11/10 01:23:30;;;;;;;41.03;23.43;;;;;;;-1.45;100.00;96580.88;1034876;28;20444;-69
2021/11/10 01:24:01;;;;;;;40.47;24.30;;;;;;;-1.46;100.00;96580.06;1027070;28;20585;-69
2021/11/10 01:24:31;;;;;;;41.13;23.65;;;;;;;-1.45;100.00;96580.88;1026923;28;20422;-69
2021/11/10 01:25:03;;;;;;;47.10;25.50;;;;;;;-1.43;100.00;96589.22;1018727;29;20074;-71
2021/11/10 01:25:34;;;;;;;45.60;25.17;;;;;;;-1.46;100.00;96574.13;1023308;28;20509;-69
2021/11/10 01:26:04;;;;;;;46.97;26.63;;;;;;;-1.46;100.00;96584.41;1023139;29;20043;-70
2021/11/10 01:26:35;;;;;;;45.40;27.33;;;;;;;-1.47;100.00;96575.91;1029233;28;20026;-69
2021/11/10 01:27:05;;;;;;;40.93;24.60;;;;;;;-1.49;100.00;96577.03;1027245;28;20034;-69
2021/11/10 01:27:36;;;;;;;45.87;26.03;;;;;;;-1.47;100.00;96575.09;1030722;28;20524;-71
2021/11/10 01:28:09;;;;;;;40.73;23.97;;;;;;;-1.54;100.00;96567.25;1037372;28;20018;-69
2021/11/10 01:28:39;;;;;;;39.28;24.50;;;;;;;-1.48;100.00;96573.47;1027124;28;20171;-69
2021/11/10 01:29:10;;;;;;;38.03;23.70;;;;;;;-1.48;100.00;96576.03;1027047;28;20723;-72
2021/11/10 01:29:40;;;;;;;39.03;23.07;;;;;;;-1.50;100.00;96572.84;1027013;28;20118;-69
2021/11/10 01:30:11;;;;;;;33.13;21.60;;;;;;;-1.52;100.00;96570.44;1027190;28;20043;-69
2021/11/10 01:30:42;;;;;;;33.90;21.77;;;;;;;-1.54;100.00;96566.41;1031073;28;20061;-69
2021/11/10 01:31:13;;;;;;;35.70;22.02;;;;;;;-1.50;100.00;96565.13;1035362;28;20045;-70
2021/11/10 01:31:43;;;;;;;38.15;25.33;;;;;;;-1.50;100.00;96567.72;1033773;28;20400;-70
2021/11/10 01:32:13;;;;;;;44.30;25.87;;;;;;;-1.52;100.00;96565.28;1031320;28;20030;-68
2021/11/10 01:32:44;;;;;;;51.20;31.10;;;;;;;-1.56;100.00;96552.94;1026903;28;20039;-71
2021/11/10 01:33:14;;;;;;;47.77;29.50;;;;;;;-1.48;100.00;96568.31;1016949;29;20435;-69
2021/11/10 01:33:45;;;;;;;55.50;31.57;;;;;;;-1.48;100.00;96570.91;1019276;29;20031;-69
2021/11/10 01:34:15;;;;;;;47.23;29.50;;;;;;;-1.49;100.00;96564.97;1019165;29;20031;-69
2021/11/10 01:34:46;;;;;;;49.33;30.43;;;;;;;-1.48;100.00;96568.31;1022973;28;20027;-69
2021/11/10 01:35:16;;;;;;;43.63;28.17;;;;;;;-1.49;100.00;96569.31;1037983;28;20416;-70
2021/11/10 01:35:47;;;;;;;33.20;21.30;;;;;;;-1.51;100.00;96566.09;1034975;28;20822;-69
2021/11/10 01:36:18;;;;;;;31.70;19.43;;;;;;;-1.52;100.00;96564.50;1031060;28;20133;-69
2021/11/10 01:36:48;;;;;;;32.13;19.17;;;;;;;-1.50;100.00;96567.72;1022848;29;20163;-70
2021/11/10 01:37:19;;;;;;;30.57;17.97;;;;;;;-1.57;100.00;96556.47;1026806;28;20042;-70
2021/11/10 01:37:50;;;;;;;26.50;17.68;;;;;;;-1.48;100.00;96565.75;1026202;28;20039;-69
2021/11/10 01:38:20;;;;;;;32.38;19.35;;;;;;;-1.57;100.00;96557.28;1027246;28;20466;-70
2021/11/10 01:38:51;;;;;;;33.07;18.97;;;;;;;-1.58;100.00;96557.44;1027025;28;20442;-69
2021/11/10 01:39:22;;;;;;;37.57;20.50;;;;;;;-1.49;100.00;96567.53;1027011;28;20550;-69
2021/11/10 01:39:53;;;;;;;35.17;21.35;;;;;;;-1.51;100.00;96566.09;1023483;28;20422;-70
2021/11/10 01:40:23;;;;;;;32.27;20.23;;;;;;;-1.57;100.00;96559.06;1019519;29;20036;-69
2021/11/10 01:40:54;;;;;;;31.53;19.50;;;;;;;-1.51;100.00;96572.06;1018623;29;20023;-69
2021/11/10 01:41:24;;;;;;;29.73;19.27;;;;;;;-1.52;100.00;96573.00;1015335;29;20028;-71
2021/11/10 01:42:01;;;;;;;34.60;19.23;;;;;;;-1.56;100.00;96574.31;1019302;29;20557;-69
2021/11/10 01:42:32;;;;;;;31.33;20.10;;;;;;;-1.61;100.00;96566.31;1023258;28;20120;-69
2021/11/10 01:43:36;;;;;;;34.13;19.70;;;;;;;-1.54;100.00;96576.69;1030992;28;20131;-69
2021/11/10 01:43:58;;;;;;;32.58;19.70;;;;;;;-1.53;100.00;96578.34;1022025;28;20043;-70
2021/11/10 01:44:30;;;;;;;34.97;21.23;;;;;;;-1.59;100.00;96569.50;1035435;28;20037;-69
2021/11/10 01:45:00;;;;;;;35.47;20.98;;;;;;;-1.54;100.00;96581.84;1030721;28;20040;-70
2021/11/10 01:45:31;;;;;;;37.03;21.77;;;;;;;-1.52;100.00;96582.50;1031104;28;20057;-70
2021/11/10 01:46:01;;;;;;;37.37;22.03;;;;;;;-1.55;100.00;96580.25;1021944;28;20608;-69
2021/11/10 01:46:37;;;;;;;27.90;19.13;;;;;;;-1.53;100.00;96580.91;1021677;28;20019;-69
2021/11/10 01:47:10;;;;;;;36.40;19.93;;;;;;;-1.58;100.00;96570.28;1031999;28;20041;-71
2021/11/10 01:47:41;;;;;;;31.15;20.67;;;;;;;-1.59;100.00;96564.34;1023727;28;20094;-69
2021/11/10 01:48:12;;;;;;;30.67;19.87;;;;;;;-1.50;100.00;96567.72;1026079;28;20085;-69
2021/11/10 01:48:43;;;;;;;31.40;19.85;;;;;;;-1.49;100.00;96561.59;1022090;29;20266;-70
2021/11/10 01:49:13;;;;;;;34.60;19.23;;;;;;;-1.45;100.00;96566.22;1024285;28;20043;-70
2021/11/10 01:49:44;;;;;;;33.27;18.93;;;;;;;-1.40;100.00;96570.09;1034464;28;20833;-69
2021/11/10 01:50:17;;;;;;;33.50;19.27;;;;;;;-1.40;100.00;96565.75;1030418;28;20034;-69
2021/11/10 01:50:47;;;;;;;31.75;19.70;;;;;;;-1.40;100.00;96568.31;1026141;28;20038;-69
2021/11/10 01:51:18;;;;;;;29.00;19.20;;;;;;;-1.40;100.00;96567.50;1026413;28;20490;-70
2021/11/10 01:51:50;;;;;;;33.97;19.73;;;;;;;-1.40;100.00;96568.31;1024979;28;20521;-70
2021/11/10 01:52:20;;;;;;;31.13;19.35;;;;;;;-1.42;100.00;96571.03;1026530;28;20058;-70
2021/11/10 01:52:51;;;;;;;27.47;18.70;;;;;;;-1.51;100.00;96553.22;1033755;28;20030;-69
2021/11/10 01:53:21;;;;;;;32.77;18.93;;;;;;;-1.44;100.00;96572.19;1029869;28;20027;-69
2021/11/10 01:53:52;;;;;;;32.67;19.37;;;;;;;-1.45;100.00;96575.72;1026647;28;20600;-69
2021/11/10 01:54:24;;;;;;;31.37;19.67;;;;;;;-1.51;100.00;96568.66;1030250;28;20034;-70
2021/11/10 01:54:54;;;;;;;32.28;18.77;;;;;;;-1.51;100.00;96571.22;1026571;28;20670;-69
2021/11/10 01:55:27;;;;;;;29.17;18.93;;;;;;;-1.47;100.00;96582.81;1022610;28;20031;-69
2021/11/10 01:55:58;;;;;;;33.58;18.63;;;;;;;-1.50;100.00;96581.38;1026138;28;20019;-69
2021/11/10 01:56:28;;;;;;;32.65;19.42;;;;;;;-1.48;100.00;96581.19;1023063;28;20027;-72
2021/11/10 01:56:59;;;;;;;35.60;20.70;;;;;;;-1.47;100.00;96577.69;1019092;29;20670;-70
2021/11/10 01:57:30;;;;;;;36.03;19.87;;;;;;;-1.54;100.00;96566.41;1018260;29;20046;-70
2021/11/10 01:58:00;;;;;;;32.67;18.97;;;;;;;-1.46;100.00;96568.97;1020629;28;20022;-69
2021/11/10 01:58:31;;;;;;;32.33;19.43;;;;;;;-1.42;100.00;96573.63;1026860;28;20019;-70
2021/11/10 01:59:01;;;;;;;31.90;20.40;;;;;;;-1.41;100.00;96574.41;1030698;28;20113;-69
2021/11/10 01:59:33;;;;;;;31.57;20.40;;;;;;;-1.41;100.00;96576.97;1032365;28;20040;-69
2021/11/10 02:00:18;;;;;;;29.75;19.77;;;;;;;-1.38;100.00;96576.66;1026717;28;20030;-70
2021/11/10 02:00:48;;;;;;;34.08;19.48;;;;;;;-1.40;100.00;96577.81;1022833;29;20580;-72
2021/11/10 02:01:19;;;;;;;34.47;19.73;;;;;;;-1.42;100.00;96570.25;1032520;28;20041;-71
2021/11/10 02:01:49;;;;;;;31.80;19.87;;;;;;;-1.40;100.00;96570.88;1034278;28;20025;-70
2021/11/10 02:02:26;;;;;;;36.10;19.90;;;;;;;-1.45;100.00;96560.28;1022646;29;20046;-69
2021/11/10 02:02:57;;;;;;;29.30;18.35;;;;;;;-1.37;100.00;96569.75;1020837;28;20495;-70
2021/11/10 02:03:27;;;;;;;33.53;19.03;;;;;;;-1.39;100.00;96559.63;1019459;29;20071;-69
2021/11/10 02:03:58;;;;;;;32.60;18.97;;;;;;;-1.38;100.00;96566.34;1020034;29;20094;-69
2021/11/10 02:04:29;;;;;;;29.47;18.90;;;;;;;-1.36;100.00;96566.22;1019607;29;20195;-70
2021/11/10 02:05:00;;;;;;;32.30;19.62;;;;;;;-1.37;100.00;96567.97;1030676;28;20018;-69
2021/11/10 02:05:30;;;;;;;33.20;20.03;;;;;;;-1.37;100.00;96562.84;1026423;28;20070;-69
2021/11/10 02:06:00;;;;;;;31.83;19.23;;;;;;;-1.36;100.00;96559.28;1022544;29;20031;-70
2021/11/10 02:06:31;;;;;;;31.08;19.50;;;;;;;-1.36;100.00;96555.91;1022785;28;20022;-70
2021/11/10 02:07:02;;;;;;;29.42;18.77;;;;;;;-1.43;100.00;96548.84;1018283;28;20039;-69
2021/11/10 02:07:33;;;;;;;31.70;19.83;;;;;;;-1.35;100.00;96560.88;1026582;28;20521;-70
2021/11/10 02:08:04;;;;;;;40.48;20.80;;;;;;;-1.35;100.00;96560.88;1019627;28;20111;-70
2021/11/10 02:08:34;;;;;;;32.83;19.93;;;;;;;-1.35;100.00;96563.44;1018572;29;20574;-69
2021/11/10 02:09:05;;;;;;;32.07;20.10;;;;;;;-1.35;100.00;96567.81;1018586;28;20035;-70
2021/11/10 02:09:36;;;;;;;32.00;20.54;;;;;;;-1.36;100.00;96569.59;1015925;29;20111;-69
2021/11/10 02:10:07;;;;;;;33.60;20.67;;;;;;;-1.38;100.00;96563.78;1022969;28;20067;-70
2021/11/10 02:10:38;;;;;;;33.36;19.56;;;;;;;-1.34;100.00;96566.81;1022164;28;20023;-69
2021/11/10 02:11:09;;;;;;;34.23;20.20;;;;;;;-1.35;100.00;96567.81;1023962;28;20020;-71
2021/11/10 02:11:40;;;;;;;32.70;19.52;;;;;;;-1.40;100.00;96559.78;1026411;28;20026;-69
2021/11/10 02:12:11;;;;;;;31.33;20.03;;;;;;;-1.32;100.00;96575.19;1026853;28;20054;-69
2021/11/10 02:12:42;;;;;;;32.50;19.73;;;;;;;-1.32;100.00;96576.00;1033907;28;20096;-70
2021/11/10 02:13:12;;;;;;;36.16;20.34;;;;;;;-1.32;100.00;96581.13;1025789;28;20042;-71
2021/11/10 02:13:44;;;;;;;29.17;19.27;;;;;;;-1.32;100.00;96578.56;1022346;28;20071;-69
2021/11/10 02:14:19;;;;;;;27.95;19.38;;;;;;;-1.32;100.00;96581.13;1018642;29;20399;-70
2021/11/10 02:14:50;;;;;;;29.80;19.45;;;;;;;-1.32;100.00;96573.41;1023835;28;20078;-70
2021/11/10 02:15:20;;;;;;;32.00;19.67;;;;;;;-1.37;100.00;96564.63;1018471;29;20028;-69
2021/11/10 02:15:51;;;;;;;35.03;20.70;;;;;;;-1.29;100.00;96585.97;1014804;29;20021;-71
2021/11/10 02:16:21;;;;;;;31.73;19.35;;;;;;;-1.29;100.00;96575.66;1014683;29;20016;-70
2021/11/10 02:16:51;;;;;;;33.03;19.90;;;;;;;-1.29;100.00;96583.38;1014025;29;20058;-70
2021/11/10 02:17:22;;;;;;;30.87;19.70;;;;;;;-1.29;100.00;96578.25;1018717;28;20133;-69
2021/11/10 02:17:56;;;;;;;31.45;20.05;;;;;;;-1.26;100.00;96575.34;1021947;29;20067;-70
2021/11/10 02:18:26;;;;;;;37.78;21.00;;;;;;;-1.25;100.00;96574.34;1018392;29;20036;-69
2021/11/10 02:18:57;;;;;;;30.67;19.15;;;;;;;-1.25;100.00;96576.94;1022327;28;20082;-71
2021/11/10 02:19:27;;;;;;;31.50;20.40;;;;;;;-1.22;100.00;96570.66;1022382;29;20031;-70
2021/11/10 02:19:58;;;;;;;31.58;19.95;;;;;;;-1.23;100.00;96575.00;1018937;29;20031;-70
2021/11/10 02:20:30;;;;;;;33.15;18.92;;;;;;;-1.21;100.00;96570.50;1022190;28;20027;-69
2021/11/10 02:21:06;;;;;;;29.50;18.45;;;;;;;-1.26;100.00;96565.03;1026891;28;20029;-70